aviador You're here:

KSHM Decoded Metar

in
Report Time2017-06-27 04:58:00
UTC Time2017-06-27 05:15:39
Flight Rules vfr VFR
Wind150° at 10 kt
W.Rank150° ranks 19
Current wind is above 150° avg. (7.0)
Visibility9999 m
Phenomena:N/A
Clouds:N/A
Expected CloudBase > 3,600 ft AGL from Temp-Dew spread
CeilingNone
Temp16°C
Dew Point07°C (55% RH)
AAT11.7°C
QNH1023 hPa
Raw Report
KSHM 270458Z AUTO 15010KT 10SM CLR 16/07 A3022 RMK AO2 SLP168
T01550074 $=

Extra information for KSHM:More info

Social comments